Airfield :
LOGIN :

Register | Disclaimer

   EN    FR    IT 

 










Legend :    VFR   Marginal VFR   IFR   Intensive IFR   Very Intensive IFR
Visi :
Ceiling :
>= 8 km
>= 3000ft
5 to 8 km
1000 to 3000 ft
1500m to 5 km
500 to 1000 ft
800 to 1500m
200 to 500 ft
< 800m
< 200 ft
Symbols :   Thunderstorms  Fog  Heavy snow  Heavy precipitations  Wind > 20 kt
SIGMETs :     Misc.  Thunderstorms  Icing  Turbulence  Mountain Waves  Volcanic Ashes






- Airport Elevation : 138 ft
- IATA code : RLG


ETNL - Rostock Laage

CURRENT METAR :
  • 161220Z 21006KT 9999 FEW110 BKN120 06/03 Q1006 BLU BLU

EXPIRED METARs :
  • 161120Z 20006KT 9999 BKN120 06/03 Q1006 BLU BLU
  • 161020Z 19005KT 9999 BKN150 BKN180 05/02 Q1007 BLU BLU

TAF TAF ETNL
Valid from the 16 at 12:00 until the 16 at 21:00 UTC


161115Z 1612/1621 20007KT 9999 NSW FEW100 BKN150
TEMPO 1615/1621 18005KT 4000 -RA BKN010 BKN050 BY ETGL



MET'MAP, your aeronautical weather chart ! - Copyright ORBIFLY December 2007 - Disclaimer

ORBIFLY MET'MAP TEAM :

Programming & Development : Alexandra Zaïnal
Concept & original design : Baudouin d'Aumeries
Assistance for programming : Marc-Olivier Méhu
Technical & hardware support : Manuel Goepfert

Contact : metmap@orbifly.com




SOURCES & CREDITS :

   NOAA